sensor_id;sensor_type;location;lat;lon;timestamp;temperature;humidity
35240;DHT22;21376;50.954;4.716;2023-01-20T00:01:59;1.80;99.90
35240;DHT22;21376;50.954;4.716;2023-01-20T00:04:25;1.80;99.90
35240;DHT22;21376;50.954;4.716;2023-01-20T00:06:54;2.00;99.90
35240;DHT22;21376;50.954;4.716;2023-01-20T00:09:28;2.20;99.90
35240;DHT22;21376;50.954;4.716;2023-01-20T00:12:04;1.90;99.90
35240;DHT22;21376;50.954;4.716;2023-01-20T00:17:01;2.00;99.90
35240;DHT22;21376;50.954;4.716;2023-01-20T00:19:43;2.00;99.90
35240;DHT22;21376;50.954;4.716;2023-01-20T00:22:11;1.90;99.90
35240;DHT22;21376;50.954;4.716;2023-01-20T00:24:40;1.70;99.90
35240;DHT22;21376;50.954;4.716;2023-01-20T00:29:38;1.40;99.90
35240;DHT22;21376;50.954;4.716;2023-01-20T00:32:07;1.30;99.90
35240;DHT22;21376;50.954;4.716;2023-01-20T00:34:36;1.20;99.90
35240;DHT22;21376;50.954;4.716;2023-01-20T00:37:04;1.00;99.90
35240;DHT22;21376;50.954;4.716;2023-01-20T00:39:36;0.90;99.90
35240;DHT22;21376;50.954;4.716;2023-01-20T00:44:57;1.00;99.90
35240;DHT22;21376;50.954;4.716;2023-01-20T00:52:30;0.80;99.90
35240;DHT22;21376;50.954;4.716;2023-01-20T00:55:02;1.00;99.90
35240;DHT22;21376;50.954;4.716;2023-01-20T00:57:30;1.20;99.90
35240;DHT22;21376;50.954;4.716;2023-01-20T00:59:55;1.10;99.90
35240;DHT22;21376;50.954;4.716;2023-01-20T01:04:52;1.30;99.90
35240;DHT22;21376;50.954;4.716;2023-01-20T01:07:18;1.10;99.90
35240;DHT22;21376;50.954;4.716;2023-01-20T01:09:54;1.10;99.90
35240;DHT22;21376;50.954;4.716;2023-01-20T01:12:21;1.10;99.90
35240;DHT22;21376;50.954;4.716;2023-01-20T01:14:47;1.30;99.90
35240;DHT22;21376;50.954;4.716;2023-01-20T01:17:15;1.40;99.90
35240;DHT22;21376;50.954;4.716;2023-01-20T01:22:18;1.50;99.90
35240;DHT22;21376;50.954;4.716;2023-01-20T01:24:47;1.60;99.90
35240;DHT22;21376;50.954;4.716;2023-01-20T01:34:59;1.70;99.90
35240;DHT22;21376;50.954;4.716;2023-01-20T01:37:26;1.60;99.90
35240;DHT22;21376;50.954;4.716;2023-01-20T01:39:53;1.50;99.90
35240;DHT22;21376;50.954;4.716;2023-01-20T01:47:43;1.60;99.90
35240;DHT22;21376;50.954;4.716;2023-01-20T01:50:12;1.60;99.90
35240;DHT22;21376;50.954;4.716;2023-01-20T01:52:42;1.50;99.90
35240;DHT22;21376;50.954;4.716;2023-01-20T01:55:09;1.70;99.90
35240;DHT22;21376;50.954;4.716;2023-01-20T01:57:40;1.70;99.90
35240;DHT22;21376;50.954;4.716;2023-01-20T02:05:03;2.00;99.90
35240;DHT22;21376;50.954;4.716;2023-01-20T02:07:32;1.90;99.90
35240;DHT22;21376;50.954;4.716;2023-01-20T02:10:02;1.80;99.90
35240;DHT22;21376;50.954;4.716;2023-01-20T02:12:31;1.70;99.90
35240;DHT22;21376;50.954;4.716;2023-01-20T02:29:13;1.60;99.90
35240;DHT22;21376;50.954;4.716;2023-01-20T02:37:17;1.50;99.90
35240;DHT22;21376;50.954;4.716;2023-01-20T02:51:06;1.10;99.90
35240;DHT22;21376;50.954;4.716;2023-01-20T02:53:45;1.00;99.90
35240;DHT22;21376;50.954;4.716;2023-01-20T02:58:42;1.10;99.90
35240;DHT22;21376;50.954;4.716;2023-01-20T03:01:21;1.20;99.90
35240;DHT22;21376;50.954;4.716;2023-01-20T03:03:55;1.40;99.90
35240;DHT22;21376;50.954;4.716;2023-01-20T03:06:23;1.30;99.90
35240;DHT22;21376;50.954;4.716;2023-01-20T03:08:51;1.20;99.90
35240;DHT22;21376;50.954;4.716;2023-01-20T03:11:18;1.30;99.90
35240;DHT22;21376;50.954;4.716;2023-01-20T03:14:07;1.50;99.90
35240;DHT22;21376;50.954;4.716;2023-01-20T03:16:34;1.40;99.90
35240;DHT22;21376;50.954;4.716;2023-01-20T03:24:04;1.40;99.90
35240;DHT22;21376;50.954;4.716;2023-01-20T03:26:33;1.30;99.90
